Time;durP1;ratioP1;P1;durP2;ratioP2;P2;SDS_P1;SDS_P2;PMS_P1;PMS_P2;Temp;Humidity;BMP_temperature;BMP_pressure;BME280_temperature;BME280_humidity;BME280_pressure;Samples;Min_cycle;Max_cycle;Signal;HPM_P1;HPM_P2
2021/11/12 00:12:57;;;;;;;29.03;14.70;;;;;;;3.32;86.03;98388.78;6271137;28;20660;-70
2021/11/12 00:16:04;;;;;;;21.60;12.67;;;;;;;3.34;86.47;98389.59;6271033;28;20805;-71
2021/11/12 00:19:06;;;;;;;25.10;12.63;;;;;;;3.32;86.33;98383.56;6269929;28;20559;-72
2021/11/12 00:22:09;;;;;;;28.03;14.50;;;;;;;3.32;86.26;98380.97;6269087;28;20192;-71
2021/11/12 00:25:11;;;;;;;24.77;12.87;;;;;;;3.35;86.53;98380.00;6269651;28;20571;-72
2021/11/12 00:28:16;;;;;;;25.60;13.43;;;;;;;3.38;86.68;98387.72;6270278;28;20708;-72
2021/11/12 00:34:48;;;;;;;23.00;12.73;;;;;;;3.41;87.20;98382.34;6270692;28;20190;-72
2021/11/12 00:44:06;;;;;;;24.20;11.83;;;;;;;3.45;87.07;98383.09;6270355;28;20200;-72
2021/11/12 00:50:56;;;;;;;23.40;13.73;;;;;;;3.43;86.55;98383.16;6268469;28;20211;-71
2021/11/12 00:57:03;;;;;;;20.93;12.30;;;;;;;3.44;86.19;98379.63;6270700;28;20220;-71
2021/11/12 01:00:09;;;;;;;24.47;11.60;;;;;;;3.44;86.92;98373.56;6269372;28;20688;-71
2021/11/12 01:03:11;;;;;;;21.53;11.67;;;;;;;3.45;87.18;98368.28;6270212;28;20174;-72
2021/11/12 01:06:14;;;;;;;23.23;12.37;;;;;;;3.46;86.63;98363.91;6269634;28;20274;-71
2021/11/12 01:09:20;;;;;;;25.83;14.07;;;;;;;3.46;87.10;98369.13;6269624;28;20223;-71
2021/11/12 01:12:22;;;;;;;28.13;13.47;;;;;;;3.45;86.60;98373.50;6269051;28;20233;-71
2021/11/12 01:15:25;;;;;;;25.33;12.87;;;;;;;3.45;87.05;98364.84;6268803;28;20629;-71
2021/11/12 01:18:27;;;;;;;24.97;13.73;;;;;;;3.45;86.75;98367.44;6269485;28;20193;-72
2021/11/12 01:21:30;;;;;;;16.83;9.77;;;;;;;3.44;86.57;98363.13;6269145;28;20192;-70
2021/11/12 01:24:33;;;;;;;23.77;12.77;;;;;;;3.40;86.60;98367.63;6269646;28;20198;-72
2021/11/12 01:27:35;;;;;;;26.87;13.43;;;;;;;3.40;86.81;98354.56;6268991;28;20201;-71
2021/11/12 01:30:37;;;;;;;20.97;12.30;;;;;;;3.38;87.03;98360.78;6269317;28;20233;-72
2021/11/12 01:33:41;;;;;;;24.80;13.80;;;;;;;3.36;86.62;98365.22;6269599;28;20186;-70
2021/11/12 01:36:46;;;;;;;27.83;14.00;;;;;;;3.32;87.04;98357.50;6267378;28;20232;-70
2021/11/12 01:39:55;;;;;;;24.07;12.43;;;;;;;3.30;86.77;98358.47;6269744;28;20199;-71
2021/11/12 01:43:05;;;;;;;22.23;11.80;;;;;;;3.29;86.98;98356.78;6268677;28;20199;-71
2021/11/12 02:01:59;;;;;;;25.70;13.13;;;;;;;3.27;87.24;98353.38;6267523;28;20204;-71
2021/11/12 02:05:02;;;;;;;21.80;12.17;;;;;;;3.28;86.81;98355.09;6266933;28;20635;-70
2021/11/12 02:08:05;;;;;;;21.70;12.33;;;;;;;3.29;87.32;98341.97;6268759;28;20772;-71
2021/11/12 02:11:07;;;;;;;26.80;12.93;;;;;;;3.28;86.60;98337.69;6268431;28;20243;-70
2021/11/12 02:14:10;;;;;;;27.20;13.00;;;;;;;3.27;87.02;98340.34;6268302;28;20731;-71
2021/11/12 02:17:17;;;;;;;20.13;10.87;;;;;;;3.28;87.31;98334.22;6268445;28;20206;-71
2021/11/12 02:23:47;;;;;;;17.77;9.00;;;;;;;3.30;86.90;98328.00;6267588;28;20202;-71
2021/11/12 02:26:56;;;;;;;18.77;10.20;;;;;;;3.34;87.00;98328.75;6272638;28;20183;-71
2021/11/12 02:29:58;;;;;;;20.27;9.97;;;;;;;3.32;87.17;98331.41;6275228;28;20684;-71
2021/11/12 02:33:04;;;;;;;15.73;9.47;;;;;;;3.33;87.42;98334.88;6277000;28;20654;-72
2021/11/12 02:36:14;;;;;;;14.73;8.00;;;;;;;3.33;87.08;98334.88;6276291;28;20230;-71
2021/11/12 02:39:16;;;;;;;16.10;8.67;;;;;;;3.35;87.50;98325.22;6276559;28;20220;-71
2021/11/12 02:42:21;;;;;;;13.27;8.63;;;;;;;3.34;87.39;98329.59;6275976;28;20204;-71
2021/11/12 02:45:24;;;;;;;15.80;9.20;;;;;;;3.33;87.22;98322.69;6276497;28;20246;-70
2021/11/12 02:48:27;;;;;;;22.53;10.60;;;;;;;3.32;87.00;98327.94;6275815;28;20201;-70
2021/11/12 02:51:32;;;;;;;18.00;9.80;;;;;;;3.32;86.93;98322.72;6275209;28;20201;-72
2021/11/12 02:54:36;;;;;;;16.13;10.00;;;;;;;3.30;86.82;98324.53;6276492;28;20197;-71
2021/11/12 02:57:38;;;;;;;21.07;11.47;;;;;;;3.28;87.00;98329.00;6274544;28;20221;-72
2021/11/12 03:00:42;;;;;;;19.73;10.23;;;;;;;3.22;87.03;98335.31;6276270;28;20218;-72
2021/11/12 03:03:44;;;;;;;14.43;9.00;;;;;;;3.20;87.16;98329.28;6275745;28;20204;-71
2021/11/12 03:06:48;;;;;;;17.43;9.20;;;;;;;3.22;86.95;98326.63;6275065;28;20201;-71
2021/11/12 03:09:50;;;;;;;17.90;9.83;;;;;;;3.25;86.77;98327.38;6274651;28;20228;-71
2021/11/12 03:12:52;;;;;;;16.73;9.53;;;;;;;3.27;87.00;98330.75;6275653;28;20229;-70
2021/11/12 03:15:55;;;;;;;20.93;11.73;;;;;;;3.29;87.02;98323.69;6276168;28;20221;-72
2021/11/12 03:18:59;;;;;;;14.40;8.43;;;;;;;3.32;87.16;98330.56;6275583;28;20198;-71
2021/11/12 03:22:08;;;;;;;14.93;9.67;;;;;;;3.32;86.78;98333.16;6276117;28;20197;-72
2021/11/12 03:25:21;;;;;;;16.90;8.67;;;;;;;3.33;87.33;98333.09;6274597;28;20566;-71
2021/11/12 04:05:37;;;;;;;20.00;10.73;;;;;;;3.20;86.96;98323.22;6268135;28;20747;-72
2021/11/12 04:19:22;;;;;;;19.23;9.90;;;;;;;3.20;87.10;98323.22;6267758;28;20225;-72
2021/11/12 05:12:47;;;;;;;20.43;11.20;;;;;;;3.29;87.53;98291.59;6263061;28;20225;-73
2021/11/12 05:55:23;;;;;;;28.23;13.53;;;;;;;3.27;87.47;98301.22;6268815;28;20181;-70
2021/11/12 05:58:25;;;;;;;21.90;12.30;;;;;;;3.27;87.61;98296.84;6268521;28;20244;-72
2021/11/12 06:01:28;;;;;;;22.27;12.20;;;;;;;3.28;87.91;98290.72;6268064;28;20774;-71
2021/11/12 06:04:30;;;;;;;19.63;10.43;;;;;;;3.28;87.95;98295.94;6268793;28;20575;-71
2021/11/12 06:07:33;;;;;;;25.50;12.60;;;;;;;3.32;87.79;98296.66;6268658;28;20194;-72
2021/11/12 06:10:35;;;;;;;29.97;13.80;;;;;;;3.33;87.66;98306.19;6266944;28;20235;-72
2021/11/12 06:13:37;;;;;;;23.73;12.43;;;;;;;3.34;87.94;98308.72;6268704;28;20190;-71
2021/11/12 06:16:40;;;;;;;28.33;12.97;;;;;;;3.38;87.48;98311.22;6267905;28;20214;-71
2021/11/12 06:19:42;;;;;;;22.73;12.27;;;;;;;3.38;87.76;98311.22;6267403;28;20197;-72
2021/11/12 06:22:45;;;;;;;32.90;15.60;;;;;;;3.40;87.75;98306.75;6268427;28;20213;-71
2021/11/12 06:25:47;;;;;;;28.10;13.23;;;;;;;3.42;87.88;98315.38;6268135;28;20193;-71
2021/11/12 06:28:50;;;;;;;25.53;12.30;;;;;;;3.42;87.65;98316.22;6267277;28;20212;-72
2021/11/12 06:31:54;;;;;;;30.73;14.27;;;;;;;3.44;87.82;98324.00;6266735;28;20198;-72
2021/11/12 06:34:57;;;;;;;29.77;13.60;;;;;;;3.43;87.51;98330.13;6267152;28;20194;-72
2021/11/12 06:37:59;;;;;;;27.50;13.40;;;;;;;3.43;87.88;98336.19;6266472;28;20217;-70
2021/11/12 06:41:06;;;;;;;33.87;15.67;;;;;;;3.46;88.35;98328.25;6266753;28;20288;-71
2021/11/12 06:50:43;;;;;;;22.03;12.67;;;;;;;3.33;87.68;98338.31;6242297;28;20210;-72
2021/11/12 06:53:45;;;;;;;23.13;12.63;;;;;;;3.38;87.79;98347.75;6256914;28;20213;-72
2021/11/12 06:56:48;;;;;;;26.43;13.97;;;;;;;3.34;88.12;98340.03;6263210;28;20236;-72
2021/11/12 06:59:50;;;;;;;27.77;15.70;;;;;;;3.34;87.94;98333.97;6266010;28;20203;-71
2021/11/12 07:02:54;;;;;;;34.33;16.13;;;;;;;3.34;87.80;98329.59;6266665;28;20191;-72
2021/11/12 07:05:56;;;;;;;27.00;15.70;;;;;;;3.31;88.10;98324.50;6267736;28;20195;-71
2021/11/12 07:08:58;;;;;;;29.70;14.57;;;;;;;3.31;88.48;98321.03;6265876;28;20195;-71
2021/11/12 07:12:00;;;;;;;27.47;15.60;;;;;;;3.28;88.15;98322.03;6266018;28;20231;-72
2021/11/12 07:15:03;;;;;;;28.00;13.67;;;;;;;3.31;87.67;98323.63;6271288;28;20189;-71
2021/11/12 07:18:05;;;;;;;29.60;14.40;;;;;;;3.29;87.93;98333.31;6272072;28;20240;-72
2021/11/12 07:21:08;;;;;;;31.27;14.87;;;;;;;3.29;88.32;98328.09;6271049;28;20196;-71
2021/11/12 07:24:30;;;;;;;28.67;16.50;;;;;;;3.32;88.05;98336.63;6270269;28;20200;-72
2021/11/12 07:27:33;;;;;;;28.20;15.10;;;;;;;3.35;87.88;98333.06;6270630;28;20672;-71
2021/11/12 07:30:46;;;;;;;21.60;12.23;;;;;;;3.40;88.20;98330.22;6271345;28;20193;-71
2021/11/12 07:33:48;;;;;;;30.27;15.40;;;;;;;3.43;88.09;98337.94;6270393;28;20195;-72
2021/11/12 07:36:54;;;;;;;29.23;13.87;;;;;;;3.45;88.00;98344.81;6269848;28;20236;-71
2021/11/12 07:39:58;;;;;;;29.13;14.80;;;;;;;3.50;87.94;98337.63;6270241;28;20398;-72
2021/11/12 07:46:36;;;;;;;26.77;15.10;;;;;;;3.55;88.19;98337.44;6254494;23;20235;-67
2021/11/12 07:49:38;;;;;;;26.70;13.97;;;;;;;3.53;87.70;98328.81;6197899;28;20685;-68
2021/11/12 07:52:41;;;;;;;22.60;12.97;;;;;;;3.53;87.82;98334.91;6197461;28;20188;-68
2021/11/12 07:55:46;;;;;;;23.37;13.97;;;;;;;3.60;87.92;98338.09;6197059;28;20197;-68
2021/11/12 07:58:49;;;;;;;25.33;13.93;;;;;;;3.62;87.85;98334.50;6197663;28;20211;-68
2021/11/12 08:01:51;;;;;;;29.13;14.00;;;;;;;3.63;88.12;98338.81;6196122;28;20744;-68
2021/11/12 08:05:06;;;;;;;25.37;13.13;;;;;;;3.65;88.08;98337.00;6197760;28;20284;-68
2021/11/12 08:08:11;;;;;;;22.87;12.27;;;;;;;3.68;88.08;98336.88;6196949;28;20243;-68
2021/11/12 08:11:19;;;;;;;19.87;12.37;;;;;;;3.65;87.86;98331.78;6196407;28;20434;-68
2021/11/12 08:14:28;;;;;;;25.33;13.30;;;;;;;3.65;87.92;98341.38;6196886;28;20223;-70
2021/11/12 08:21:12;;;;;;;26.07;13.10;;;;;;;3.64;87.98;98321.41;6197285;28;20279;-68
2021/11/12 08:33:54;;;;;;;25.83;14.60;;;;;;;3.47;87.95;98329.94;6196730;28;20726;-68
2021/11/12 08:43:20;;;;;;;24.97;13.13;;;;;;;3.51;87.73;98330.66;6196871;28;20232;-67
2021/11/12 08:47:00;;;;;;;21.60;11.10;;;;;;;3.45;87.73;98329.16;6213932;28;20931;-68
2021/11/12 08:49:50;;;;;;;22.83;11.67;;;;;;;3.42;87.78;98337.09;6218214;28;20693;-68
2021/11/12 08:53:02;;;;;;;24.50;11.17;;;;;;;3.48;87.95;98331.66;6220453;28;20203;-68
2021/11/12 08:56:12;;;;;;;16.03;9.07;;;;;;;3.46;87.97;98332.63;6220747;28;20203;-68
2021/11/12 08:59:14;;;;;;;15.57;8.60;;;;;;;3.49;87.28;98332.50;6220144;28;20203;-68
2021/11/12 09:02:19;;;;;;;18.87;9.93;;;;;;;3.57;87.31;98339.09;6220570;28;20186;-68
2021/11/12 09:05:23;;;;;;;17.13;9.33;;;;;;;3.63;87.14;98338.81;6220778;28;20529;-68
2021/11/12 09:08:25;;;;;;;16.90;10.13;;;;;;;3.67;87.49;98340.41;6219990;28;20236;-68
2021/11/12 09:11:28;;;;;;;19.13;9.83;;;;;;;3.71;87.16;98346.31;6220319;28;20284;-68
2021/11/12 09:14:31;;;;;;;17.27;10.43;;;;;;;3.68;87.54;98330.81;6217563;28;20199;-73
2021/11/12 09:17:33;;;;;;;20.80;10.30;;;;;;;3.67;87.36;98329.09;6211068;28;20210;-68
2021/11/12 09:20:55;;;;;;;15.53;8.77;;;;;;;3.60;87.55;98333.72;6219776;28;20197;-68
2021/11/12 09:23:58;;;;;;;17.80;9.33;;;;;;;3.61;87.30;98337.19;6220053;28;20199;-68
2021/11/12 09:27:00;;;;;;;17.60;8.67;;;;;;;3.68;86.91;98331.66;6220172;28;20608;-68
2021/11/12 09:30:05;;;;;;;16.03;8.60;;;;;;;3.74;86.76;98324.47;6219341;28;20199;-68
2021/11/12 09:33:07;;;;;;;12.23;7.80;;;;;;;3.76;86.70;98323.50;6220137;28;20245;-68
2021/11/12 09:36:10;;;;;;;14.13;8.73;;;;;;;3.79;86.43;98325.13;6218524;28;20666;-68
2021/11/12 09:39:13;;;;;;;13.60;8.00;;;;;;;3.77;86.68;98324.34;6218765;28;20378;-68
2021/11/12 09:42:15;;;;;;;12.90;7.90;;;;;;;3.80;86.76;98316.38;6202099;28;20625;-67
2021/11/12 09:45:19;;;;;;;13.17;8.80;;;;;;;3.87;86.74;98313.44;6210240;28;20240;-68
2021/11/12 09:48:21;;;;;;;15.57;8.67;;;;;;;3.94;86.62;98321.84;6207412;28;20272;-68
2021/11/12 09:51:23;;;;;;;12.53;7.90;;;;;;;3.88;85.93;98317.75;6219150;28;20279;-68
2021/11/12 09:54:25;;;;;;;12.47;7.47;;;;;;;3.83;85.93;98304.03;6219539;28;20684;-68
2021/11/12 09:57:30;;;;;;;13.17;8.53;;;;;;;3.78;85.97;98295.56;6218876;28;20222;-68
2021/11/12 10:00:34;;;;;;;11.47;7.00;;;;;;;3.66;86.55;98291.72;6219358;28;20206;-68
2021/11/12 10:03:44;;;;;;;14.87;9.07;;;;;;;3.69;85.96;98291.56;6219304;28;20211;-67
2021/11/12 10:06:46;;;;;;;14.77;8.70;;;;;;;3.72;86.11;98280.16;6217749;28;20581;-70
2021/11/12 10:10:08;;;;;;;11.03;7.83;;;;;;;3.72;85.79;98273.19;6217632;28;20248;-68
2021/11/12 10:13:24;;;;;;;13.40;8.37;;;;;;;3.72;85.84;98278.41;6218911;28;20785;-67
2021/11/12 10:16:35;;;;;;;13.67;7.87;;;;;;;3.66;85.84;98273.44;6217228;28;20206;-68
2021/11/12 10:19:53;;;;;;;11.27;7.30;;;;;;;3.61;86.04;98262.34;6218519;28;20206;-68
2021/11/12 10:22:55;;;;;;;12.60;7.83;;;;;;;3.57;85.79;98252.97;6219161;28;20670;-69
2021/11/12 10:26:04;;;;;;;12.63;7.70;;;;;;;3.58;85.76;98243.38;6217720;28;20194;-68
2021/11/12 10:29:13;;;;;;;15.50;8.50;;;;;;;3.50;84.75;98240.22;6218576;28;20199;-68
2021/11/12 10:32:37;;;;;;;11.67;7.60;;;;;;;3.47;85.16;98246.44;6218775;28;20190;-68
2021/11/12 10:35:39;;;;;;;14.77;8.07;;;;;;;3.52;85.62;98248.84;6218380;28;20682;-68
2021/11/12 10:38:42;;;;;;;12.37;7.60;;;;;;;3.61;85.49;98246.69;6217444;28;20220;-68
2021/11/12 10:41:46;;;;;;;14.97;8.60;;;;;;;3.75;85.27;98240.88;6218561;28;20272;-68
2021/11/12 10:44:52;;;;;;;12.37;8.37;;;;;;;3.85;85.78;98236.94;6214748;28;20729;-68
2021/11/12 10:47:56;;;;;;;13.17;7.60;;;;;;;3.93;84.81;98228.75;6216306;28;20188;-68
2021/11/12 10:51:14;;;;;;;11.33;6.70;;;;;;;3.98;85.11;98222.44;6223210;28;20280;-68
2021/11/12 10:54:29;;;;;;;13.00;8.13;;;;;;;4.06;84.39;98229.91;6223977;28;20205;-69
2021/11/12 10:57:41;;;;;;;12.93;7.57;;;;;;;3.98;84.63;98218.97;6223105;28;20297;-68
2021/11/12 11:00:47;;;;;;;13.97;7.10;;;;;;;3.94;84.34;98215.66;6223459;28;20327;-69
2021/11/12 11:03:49;;;;;;;15.03;8.13;;;;;;;3.89;83.89;98201.97;6223372;28;20677;-68
2021/11/12 11:06:51;;;;;;;13.30;7.70;;;;;;;3.88;84.99;98197.66;6223097;28;20761;-71
2021/11/12 11:09:57;;;;;;;14.60;7.90;;;;;;;3.90;84.22;98190.56;6223112;28;20200;-68
2021/11/12 11:13:08;;;;;;;12.73;7.33;;;;;;;3.91;84.95;98194.03;6222998;28;20258;-68
2021/11/12 11:16:20;;;;;;;15.93;7.73;;;;;;;3.86;84.85;98189.03;6207214;28;20198;-68
2021/11/12 11:19:34;;;;;;;12.13;7.03;;;;;;;3.91;85.00;98186.19;6220456;28;20226;-70
2021/11/12 11:22:48;;;;;;;14.43;7.70;;;;;;;3.97;84.41;98184.19;6221542;28;20201;-68
2021/11/12 11:26:04;;;;;;;15.47;8.23;;;;;;;3.96;84.75;98179.03;6222943;28;20199;-68
2021/11/12 11:29:09;;;;;;;10.87;7.50;;;;;;;3.94;84.85;98173.03;6222904;28;20269;-68
2021/11/12 11:32:11;;;;;;;14.80;8.43;;;;;;;3.93;84.43;98172.16;6221377;28;20813;-68
2021/11/12 11:35:15;;;;;;;16.33;8.90;;;;;;;3.95;84.82;98162.50;6222305;28;20659;-69
2021/11/12 11:38:17;;;;;;;18.37;9.00;;;;;;;3.91;85.14;98155.72;6222611;28;20291;-68
2021/11/12 11:41:23;;;;;;;16.37;8.23;;;;;;;3.92;85.29;98153.97;6222172;28;20198;-68
2021/11/12 11:44:25;;;;;;;17.90;9.30;;;;;;;3.77;85.67;98154.69;6222231;28;20239;-68
2021/11/12 11:47:29;;;;;;;19.83;9.73;;;;;;;3.78;85.70;98154.59;6196853;28;20282;-68
2021/11/12 11:50:32;;;;;;;18.50;9.40;;;;;;;3.78;85.72;98149.38;6222203;28;20545;-68
2021/11/12 11:53:44;;;;;;;17.20;10.07;;;;;;;3.81;85.95;98146.63;6222297;28;20285;-68
2021/11/12 11:56:56;;;;;;;17.13;10.20;;;;;;;3.85;85.51;98148.19;6220702;28;20253;-68
2021/11/12 12:00:21;;;;;;;17.20;9.87;;;;;;;3.84;85.76;98130.81;6220886;28;20212;-68
2021/11/12 12:03:28;;;;;;;31.53;13.47;;;;;;;3.64;85.73;98125.66;6222412;28;20204;-69
2021/11/12 12:06:30;;;;;;;20.23;12.07;;;;;;;3.61;85.67;98125.78;6221893;28;20677;-68
2021/11/12 12:09:48;;;;;;;16.30;10.70;;;;;;;3.63;86.27;98119.59;6221849;28;20191;-73
2021/11/12 12:12:56;;;;;;;18.50;11.43;;;;;;;3.67;86.68;98118.56;6221513;28;20224;-68
2021/11/12 12:16:07;;;;;;;19.10;11.40;;;;;;;3.67;85.83;98108.13;6215290;28;20192;-68
2021/11/12 13:23:53;;;;;;;24.77;13.80;;;;;;;3.64;86.68;98079.53;6219561;28;20202;-69
2021/11/12 13:27:06;;;;;;;23.93;13.43;;;;;;;3.62;86.61;98075.31;6219716;28;20199;-68
2021/11/12 13:30:09;;;;;;;17.30;11.20;;;;;;;3.65;87.21;98083.84;6218696;28;20198;-68
2021/11/12 13:33:28;;;;;;;21.80;13.40;;;;;;;3.68;86.94;98075.03;6219783;28;20260;-68
2021/11/12 13:36:33;;;;;;;25.87;15.17;;;;;;;3.63;86.26;98077.84;6218438;28;20680;-68
2021/11/12 13:39:35;;;;;;;22.00;14.33;;;;;;;3.63;86.97;98077.00;6219350;28;20208;-68
2021/11/12 13:42:42;;;;;;;27.10;16.03;;;;;;;3.65;86.58;98081.22;6219531;28;20600;-68
2021/11/12 13:45:58;;;;;;;22.63;14.73;;;;;;;3.67;86.43;98065.50;6214206;28;20238;-68
2021/11/12 13:49:00;;;;;;;21.13;13.80;;;;;;;3.64;87.15;98066.50;6219219;28;20667;-68
2021/11/12 13:52:27;;;;;;;30.27;17.23;;;;;;;3.63;87.05;98064.78;6219537;28;20198;-68
2021/11/12 13:55:36;;;;;;;25.40;15.83;;;;;;;3.57;86.71;98064.25;6219028;28;20194;-68
2021/11/12 13:58:40;;;;;;;27.20;15.43;;;;;;;3.59;87.42;98071.06;6219506;28;20750;-68
2021/11/12 14:01:43;;;;;;;27.67;18.03;;;;;;;3.59;87.36;98067.63;6218845;28;20669;-69
2021/11/12 14:05:24;;;;;;;33.40;20.87;;;;;;;3.53;88.11;98067.91;6167198;28;20234;-69
2021/11/12 14:09:01;;;;;;;32.60;19.87;;;;;;;3.59;87.96;98070.25;6217230;28;20195;-68
2021/11/12 14:12:05;;;;;;;30.03;18.30;;;;;;;3.61;87.42;98064.00;6217932;28;20218;-68
2021/11/12 14:15:26;;;;;;;26.90;17.00;;;;;;;3.64;87.97;98057.81;6212459;28;20346;-68
2021/11/12 14:21:48;;;;;;;37.87;20.83;;;;;;;3.69;87.96;98048.03;6212127;28;20774;-69
2021/11/12 14:24:54;;;;;;;36.43;19.70;;;;;;;3.69;88.20;98038.41;6215894;28;20733;-69
2021/11/12 14:28:22;;;;;;;39.63;22.07;;;;;;;3.71;87.60;98036.56;6208191;28;20182;-68
2021/11/12 14:35:04;;;;;;;32.13;20.23;;;;;;;3.74;87.80;98032.97;6208360;28;20202;-68
2021/11/12 14:38:16;;;;;;;40.60;21.77;;;;;;;3.72;87.71;98026.97;6219115;28;20207;-68
2021/11/12 14:42:13;;;;;;;36.00;20.33;;;;;;;3.72;88.28;98024.38;6217578;28;20194;-68
2021/11/12 14:45:15;;;;;;;38.50;21.73;;;;;;;3.75;87.98;98020.78;6204097;28;20232;-68
2021/11/12 14:48:30;;;;;;;45.90;23.10;;;;;;;3.72;88.22;98016.53;6211208;28;20547;-68
2021/11/12 14:55:07;;;;;;;36.70;21.03;;;;;;;3.72;88.12;98013.94;6218334;28;20201;-68
2021/11/12 14:58:12;;;;;;;45.47;24.20;;;;;;;3.77;88.33;98024.16;6217697;28;20223;-68
2021/11/12 15:01:18;;;;;;;31.87;19.23;;;;;;;3.76;87.91;98027.69;6218293;28;20317;-69
2021/11/12 15:04:20;;;;;;;44.93;25.93;;;;;;;3.79;88.01;98020.56;6217261;28;20274;-67
2021/11/12 15:07:37;;;;;;;45.43;25.43;;;;;;;3.78;88.05;98031.06;6218746;28;20284;-68
2021/11/12 15:10:41;;;;;;;42.93;24.87;;;;;;;3.77;87.93;98026.78;6217988;28;20194;-69
2021/11/12 15:13:45;;;;;;;40.33;23.53;;;;;;;3.81;88.36;98030.91;6219466;28;20366;-70
2021/11/12 15:16:47;;;;;;;46.33;27.00;;;;;;;3.77;87.82;98018.94;6217179;28;20772;-69
2021/11/12 15:19:50;;;;;;;44.27;25.17;;;;;;;3.77;88.63;98016.34;6216965;28;20218;-69
2021/11/12 15:29:41;;;;;;;47.70;27.37;;;;;;;3.85;87.91;98001.16;6185621;28;20293;-69
2021/11/12 15:32:49;;;;;;;44.60;26.07;;;;;;;3.86;87.95;97995.84;6218402;28;20208;-69
2021/11/12 15:35:52;;;;;;;41.70;24.13;;;;;;;3.87;88.26;98005.38;6221327;28;20202;-69
2021/11/12 15:45:12;;;;;;;43.87;25.00;;;;;;;3.87;87.64;97997.53;6216254;28;20237;-68
2021/11/12 15:48:26;;;;;;;42.80;25.73;;;;;;;3.87;88.23;98004.53;6219295;28;20685;-69
2021/11/12 15:51:39;;;;;;;44.53;26.07;;;;;;;3.89;88.40;98005.31;6222297;28;20668;-69
2021/11/12 16:01:29;;;;;;;42.03;25.80;;;;;;;3.89;87.72;98005.31;6168651;28;20581;-74
2021/11/12 16:05:06;;;;;;;40.93;24.60;;;;;;;3.90;87.50;98006.97;6207940;28;20211;-68
2021/11/12 16:11:25;;;;;;;39.57;24.67;;;;;;;3.96;87.87;98004.94;6215524;28;20224;-68
2021/11/12 16:14:39;;;;;;;46.63;26.80;;;;;;;3.97;87.54;98008.38;6206802;28;20189;-68
2021/11/12 16:27:08;;;;;;;36.40;23.10;;;;;;;3.97;87.40;98009.22;6198175;28;20270;-68
2021/11/12 16:30:12;;;;;;;38.67;23.73;;;;;;;3.97;87.89;98008.38;6221551;28;20187;-68
2021/11/12 16:33:14;;;;;;;37.03;22.40;;;;;;;3.93;87.26;98009.44;6220554;28;20596;-68
2021/11/12 16:36:16;;;;;;;36.57;22.40;;;;;;;3.94;87.50;98006.75;6221478;28;20278;-69
2021/11/12 16:39:25;;;;;;;32.43;20.67;;;;;;;3.96;87.17;97996.25;6221136;28;20244;-68
2021/11/12 16:52:07;;;;;;;31.00;19.83;;;;;;;3.94;87.46;97990.25;6220334;28;20223;-68
2021/11/12 17:04:59;;;;;;;27.07;17.90;;;;;;;3.94;87.15;97985.88;6221019;28;20193;-69
2021/11/12 17:08:10;;;;;;;29.57;19.43;;;;;;;3.92;86.80;97989.47;6194754;28;20232;-69
2021/11/12 17:14:50;;;;;;;30.97;19.30;;;;;;;3.75;86.92;97989.44;6209273;28;20294;-68
2021/11/12 17:47:48;;;;;;;20.93;14.60;;;;;;;2.55;88.13;97977.59;6208474;28;20197;-68
2021/11/12 21:49:15;;;;;;;24.57;14.07;;;;;;;-0.30;89.68;97852.72;6207280;28;20797;-67
2021/11/12 21:52:17;;;;;;;26.93;16.23;;;;;;;-0.34;89.54;97852.88;6218894;28;20196;-68
2021/11/12 21:55:19;;;;;;;25.67;15.77;;;;;;;-0.38;89.77;97852.13;6217101;28;20250;-67
2021/11/12 21:58:22;;;;;;;24.13;16.07;;;;;;;-0.44;90.12;97854.94;6218464;28;20452;-67
2021/11/12 22:01:25;;;;;;;27.77;16.93;;;;;;;-0.45;89.84;97855.84;6209234;28;20217;-69
2021/11/12 22:04:28;;;;;;;25.13;16.17;;;;;;;-0.47;90.15;97852.44;6206686;28;20255;-68
2021/11/12 22:07:30;;;;;;;25.63;16.67;;;;;;;-0.49;89.96;97854.22;6203748;28;20976;-67
2021/11/12 22:10:33;;;;;;;25.80;14.80;;;;;;;-0.52;89.54;97857.81;6210470;28;20668;-67
2021/11/12 22:13:37;;;;;;;22.00;14.10;;;;;;;-0.54;89.58;97856.16;6218237;28;20275;-67
2021/11/12 22:16:39;;;;;;;27.40;15.83;;;;;;;-0.59;89.77;97848.50;6213669;28;20189;-68
2021/11/12 22:19:41;;;;;;;26.70;14.93;;;;;;;-0.60;90.05;97853.78;6217912;28;20204;-68
2021/11/12 22:22:45;;;;;;;28.33;16.40;;;;;;;-0.61;90.05;97852.06;6205152;28;20197;-68
2021/11/12 22:25:49;;;;;;;25.23;15.33;;;;;;;-0.63;89.83;97851.28;6209281;28;20698;-68
2021/11/12 22:28:54;;;;;;;24.43;14.57;;;;;;;-0.68;89.73;97847.97;6206313;28;20269;-67
2021/11/12 22:31:57;;;;;;;24.97;15.23;;;;;;;-0.71;89.94;97848.94;6207773;28;20694;-68
2021/11/12 22:35:15;;;;;;;23.17;14.27;;;;;;;-0.76;89.83;97849.06;6206109;28;20236;-68
2021/11/12 22:38:17;;;;;;;20.73;12.60;;;;;;;-0.80;89.89;97844.88;6205867;28;20189;-68
2021/11/12 22:41:19;;;;;;;23.17;13.90;;;;;;;-0.86;89.73;97842.50;6204617;28;20205;-68
2021/11/12 22:44:21;;;;;;;23.57;14.20;;;;;;;-0.88;89.96;97848.63;6210732;28;20267;-68
2021/11/12 22:47:23;;;;;;;22.37;13.53;;;;;;;-0.90;89.43;97840.06;6213302;28;20677;-68
2021/11/12 22:50:25;;;;;;;25.27;15.43;;;;;;;-0.94;89.77;97841.91;6210837;28;20184;-68
2021/11/12 22:53:27;;;;;;;24.80;14.83;;;;;;;-0.96;89.91;97840.25;6210983;28;20181;-67
2021/11/12 22:56:29;;;;;;;26.07;14.40;;;;;;;-0.99;89.68;97837.75;6208000;28;20688;-69
2021/11/12 22:59:31;;;;;;;22.40;13.63;;;;;;;-0.99;89.69;97838.59;6213133;28;20199;-67
2021/11/12 23:02:33;;;;;;;28.27;15.07;;;;;;;-0.99;89.75;97832.56;6209660;28;20188;-68
2021/11/12 23:05:35;;;;;;;25.93;15.60;;;;;;;-0.98;89.85;97829.94;6211039;28;20193;-67
2021/11/12 23:08:38;;;;;;;26.60;14.97;;;;;;;-0.98;89.71;97835.13;6209508;28;20668;-68
2021/11/12 23:11:40;;;;;;;24.57;14.47;;;;;;;-1.01;89.72;97819.69;6207724;28;20565;-68
2021/11/12 23:14:42;;;;;;;21.47;13.97;;;;;;;-1.02;89.52;97830.09;6210691;28;20403;-67
2021/11/12 23:17:45;;;;;;;27.87;16.17;;;;;;;-1.05;89.85;97825.84;6211622;28;20196;-67
2021/11/12 23:20:47;;;;;;;26.10;15.40;;;;;;;-1.08;89.90;97831.13;6207426;28;20247;-67
2021/11/12 23:23:51;;;;;;;25.73;15.47;;;;;;;-1.10;89.83;97832.94;6221065;28;20582;-68
2021/11/12 23:26:53;;;;;;;22.37;13.83;;;;;;;-1.14;90.00;97821.81;6212202;28;20194;-68
2021/11/12 23:29:56;;;;;;;21.30;13.23;;;;;;;-1.16;89.73;97820.16;6214014;28;20220;-67
2021/11/12 23:32:58;;;;;;;23.87;14.50;;;;;;;-1.19;90.14;97812.47;6220687;28;20201;-68
2021/11/12 23:36:04;;;;;;;23.23;14.03;;;;;;;-1.24;89.99;97820.41;6208638;28;20610;-69
2021/11/12 23:39:07;;;;;;;25.57;14.70;;;;;;;-1.30;90.33;97820.63;6220456;28;20287;-67
2021/11/12 23:42:09;;;;;;;24.47;14.03;;;;;;;-1.34;89.73;97829.34;6221989;28;20205;-68
2021/11/12 23:45:12;;;;;;;22.80;13.37;;;;;;;-1.37;89.94;97826.00;6215401;28;20243;-69
2021/11/12 23:48:16;;;;;;;25.07;15.13;;;;;;;-1.38;89.97;97821.72;6202699;28;20205;-67
2021/11/12 23:51:18;;;;;;;25.77;15.50;;;;;;;-1.39;89.89;97823.44;6214291;28;20264;-68
2021/11/12 23:54:20;;;;;;;27.70;14.87;;;;;;;-1.41;89.92;97820.09;6216800;28;20197;-68
2021/11/12 23:57:23;;;;;;;24.63;14.47;;;;;;;-1.43;89.96;97818.44;6203592;28;20891;-67
